Terminal Aerodrome Forecast
Issued by NWS Atlanta, GA

Home | Current Version | Previous Version | Text Only | Print | Product List | Glossary On
Versions: 1 2 3 4 5 6 7 8 9 10 11 12 13
041
FTUS42 KFFC 102325
TAFMCN
TAF
KMCN 102325Z 1100/1124 06004KT P6SM SKC
     FM110900 08003KT P6SM FEW025
     FM111100 06003KT P6SM BKN025
     FM111500 06006KT P6SM BKN015=

USA.gov is the U.S. government's official web portal to all federal, state and local government web resources and services.